EGLF - Farnborough
Distance from station: E 5mi, 14km
Updated: 01/20/2018 10:50am
Mostly Cloudy
Mostly Cloudy
 Wind from NNE
Wind: NNE 8 mph , 13 km/h
Temperature: 37°F , 3°C
Wind Chill: 31°F , -1°C
Dew Point: 37°F , 3°C
Humidity: 100%
Barometer: 29.62 inHg , 1003 hPa
Clouds: Mostly Cloudy
Visibility: 5 miles , 8 km
Cloud details: Mostly Cloudy 500 ft
2018/01/20 18:50 EGLF 201850Z 02007KT 340V040 8000 BKN005 03/03 Q1003